Oakville, CA (94562)

1:09 AM PST on November 22, 2014 (GMT -0800)
KCAOAKVI6 | Change Station
CLOSE
Current Station
Personal Weather Station
Location: Oakville, CA
Elevation: 190 ft
Nearby Weather Stations

Elev 190 ft 38.41 °N, 122.39 °W | Updated 8 minutes ago

Overcast
Overcast
55.3 °F
Feels Like 55.3 °F
N
4.0
Wind Variable Wind from SW
Gusts 11.0 mph

Today
High -- | Low -- °F
--% Chance of Precip.
Yesterday
High -- | Low -- °F
Precip. -- in
6:58 AM 4:52 PM
Waning Crescent, 0% visible
Pressure 30.11 in
Visibility 10.0 miles
Clouds Few 800 ft
Overcast 1500 ft
Dew Point 54 °F
Humidity 95%
Rainfall 0.04 in
Snow Depth Not available.
UV 0.0 out of 12
Pollen 1.10 out of 12
Air Quality Not available.
Flu Activity Not available.
METAR KO69 220855Z AUTO 12005KT 10SM FEW008 OVC015 13/13 A3011 RMK AO1

More Conditions Fewer Conditions

Pressure 30.11 in
Visibility 10.0 miles
Clouds Few 800 ft
Overcast 1500 ft
Dew Point 54 °F
Humidity 95%
Rainfall 0.04 in
Snow Depth Not available.
UV 0.0 out of 12
Pollen 1.10 out of 12
Air Quality Not available.
Flu Activity Not available.
METAR KO69 220855Z AUTO 12005KT 10SM FEW008 OVC015 13/13 A3011 RMK AO1

More Conditions Fewer Conditions

10-Day Weather Forecast

Almanac

Astronomy

Nov. 22, 2014 Rise Set
Actual Time
Civil Twilight
Nautical Twilight
Astronomical Twilight
Moon
Length of Visible Light
Length of Day
Tomorrow will be .
, % of the Moon is Illuminated

Today's Extremes

State Highs State Lows

Community

WunderPhotos

Upload Photos

1,772,794 photos uploaded!

WunderBlogs® & News

Nearby

Air Quality

  Air Quality AQ Index Pollutant
Not available.

Snow Depth

Station Depth Elevation

Earthquake Activity

City Distance Mag. Time & Date
Minimum magnitude displayed is 2.5.

Coastal Water Temperatures

Place Temperature

Nearby Weather Stations